RCTP

Taiwan Taoyuan International Airport

Taipei, Taiwan
TAF RCTP 171700Z 1718/1824 06005KT 9999 FEW008 SCT015 BKN032 TEMPO 1720/1801 04010KT FEW005 BKN008 BKN020 BECMG 1801/1803 02010KT SCT010 BKN022 BKN040 BECMG 1810/1812 SCT008 BKN012 BKN030 TEMPO 1814/1818 35012KT 4000 RA SCT005 BKN008 BKN020 TEMPO 1820/1824 01020KT 3200 RA SCT004 BKN006 BKN015
Issued Valid From Valid To
Nov-17 @ 17:00 UTC
(5 hours ago)
Nov-17 @ 18:00 UTC
(4 hours ago)
Nov-19 @ 00:00 UTC
(-1 days ago)
Nov-17 @ 18:00 to Nov-18 @ 01:00
TAF RCTP 171700Z 1718/1824 06005KT 9999 FEW008 SCT015 BKN032
Wind Visibility Clouds
60° at 5 knots 10,000+ meters
  • Few at 800' AGL
  • Scattered at 1,500' AGL
  • Broken at 3,200' AGL
Temporary Nov-17 @ 20:00 to Nov-18 @ 01:00
TEMPO 1720/1801 04010KT FEW005 BKN008 BKN020
Wind Clouds
40° at 10 knots
  • Few at 500' AGL
  • Broken at 800' AGL
  • Broken at 2,000' AGL
Becoming Nov-18 @ 01:00 to Nov-18 @ 10:00
BECMG 1801/1803 02010KT SCT010 BKN022 BKN040
Wind Visibility Clouds
20° at 10 knots 10,000+ meters
  • Scattered at 1,000' AGL
  • Broken at 2,200' AGL
  • Broken at 4,000' AGL
Becoming Nov-18 @ 10:00 to Nov-19 @ 00:00
BECMG 1810/1812 SCT008 BKN012 BKN030
Wind Visibility Clouds
20° at 10 knots 10,000+ meters
  • Scattered at 800' AGL
  • Broken at 1,200' AGL
  • Broken at 3,000' AGL
Temporary Nov-18 @ 14:00 to Nov-18 @ 18:00
TEMPO 1814/1818 35012KT 4000 RA SCT005 BKN008 BKN020
Wind Visibility Clouds Conditions
350° at 12 knots 4,007 meters
  • Scattered at 500' AGL
  • Broken at 800' AGL
  • Broken at 2,000' AGL
  • Rain
Temporary Nov-18 @ 20:00 to Nov-19 @ 00:00
TEMPO 1820/1824 01020KT 3200 RA SCT004 BKN006 BKN015
Wind Visibility Clouds Conditions
10° at 20 knots 3,203 meters
  • Scattered at 400' AGL
  • Broken at 600' AGL
  • Broken at 1,500' AGL
  • Rain
TAF RCTP 171700Z 1718/1824 06005KT 9999 FEW008 SCT015 BKN032 TEMPO 1720/1801 04010KT FEW005 BKN008 BKN020 BECMG 1801/1803 02010KT SCT010 BKN022 BKN040 BECMG 1810/1812 SCT008 BKN012 BKN030 TEMPO 1814/1818 35012KT 4000 RA SCT005 BKN008 BKN020 TEMPO 1820/1824 01020KT 3200 RA SCT004 BKN006 BKN015
Issued Nov-17 @ 17:00 UTC
(5 hours ago)
Valid From Nov-17 @ 18:00 UTC
(4 hours ago)
Valid To Nov-19 @ 00:00 UTC
(-1 days ago)
Nov-17 @ 18:00 - Nov-18 @ 01:00
Wind Visibility
60° at 5 knots 10,000+ meters
Clouds
  • Few at 800' AGL
  • Scattered at 1,500' AGL
  • Broken at 3,200' AGL
Temporary Nov-17 @ 20:00 - Nov-18 @ 01:00
Wind
40° at 10 knots
Clouds
  • Few at 500' AGL
  • Broken at 800' AGL
  • Broken at 2,000' AGL
Becoming Nov-18 @ 01:00 - Nov-18 @ 10:00
Wind Visibility
20° at 10 knots 10,000+ meters
Clouds
  • Scattered at 1,000' AGL
  • Broken at 2,200' AGL
  • Broken at 4,000' AGL
Becoming Nov-18 @ 10:00 - Nov-19 @ 00:00
Wind Visibility
20° at 10 knots 10,000+ meters
Clouds
  • Scattered at 800' AGL
  • Broken at 1,200' AGL
  • Broken at 3,000' AGL
Temporary Nov-18 @ 14:00 - Nov-18 @ 18:00
Wind Visibility
350° at 12 knots 4,007 meters
Clouds
  • Scattered at 500' AGL
  • Broken at 800' AGL
  • Broken at 2,000' AGL
Conditions
  • Rain
Temporary Nov-18 @ 20:00 - Nov-19 @ 00:00
Wind Visibility
10° at 20 knots 3,203 meters
Clouds
  • Scattered at 400' AGL
  • Broken at 600' AGL
  • Broken at 1,500' AGL
Conditions
  • Rain